sensor_id;sensor_type;location;lat;lon;timestamp;temperature;humidity
14093;DHT22;7123;49.468;10.992;2023-12-20T00:01:10;6.40;99.90
14093;DHT22;7123;49.468;10.992;2023-12-20T00:03:37;6.40;99.90
14093;DHT22;7123;49.468;10.992;2023-12-20T00:06:09;6.40;99.90
14093;DHT22;7123;49.468;10.992;2023-12-20T00:08:36;6.40;99.90
14093;DHT22;7123;49.468;10.992;2023-12-20T00:11:03;6.30;99.90
14093;DHT22;7123;49.468;10.992;2023-12-20T00:13:29;6.40;99.90
14093;DHT22;7123;49.468;10.992;2023-12-20T00:15:56;6.30;99.90
14093;DHT22;7123;49.468;10.992;2023-12-20T00:18:26;6.30;99.90
14093;DHT22;7123;49.468;10.992;2023-12-20T00:20:53;6.30;99.90
14093;DHT22;7123;49.468;10.992;2023-12-20T00:23:19;6.70;99.90
14093;DHT22;7123;49.468;10.992;2023-12-20T00:25:46;6.30;99.90
14093;DHT22;7123;49.468;10.992;2023-12-20T00:28:13;6.30;99.90
14093;DHT22;7123;49.468;10.992;2023-12-20T00:30:40;6.30;99.90
14093;DHT22;7123;49.468;10.992;2023-12-20T00:33:07;6.30;99.90
14093;DHT22;7123;49.468;10.992;2023-12-20T00:35:34;6.20;99.90
14093;DHT22;7123;49.468;10.992;2023-12-20T00:38:00;6.20;99.90
14093;DHT22;7123;49.468;10.992;2023-12-20T00:40:27;6.20;99.90
14093;DHT22;7123;49.468;10.992;2023-12-20T00:42:54;6.30;99.90
14093;DHT22;7123;49.468;10.992;2023-12-20T00:45:21;6.30;99.90
14093;DHT22;7123;49.468;10.992;2023-12-20T00:47:47;6.20;99.90
14093;DHT22;7123;49.468;10.992;2023-12-20T00:50:15;6.30;99.90
14093;DHT22;7123;49.468;10.992;2023-12-20T00:52:42;6.30;99.90
14093;DHT22;7123;49.468;10.992;2023-12-20T00:55:08;6.30;99.90
14093;DHT22;7123;49.468;10.992;2023-12-20T00:57:35;6.20;99.90
14093;DHT22;7123;49.468;10.992;2023-12-20T01:00:02;6.20;99.90
14093;DHT22;7123;49.468;10.992;2023-12-20T01:02:29;6.20;99.90
14093;DHT22;7123;49.468;10.992;2023-12-20T01:04:56;6.20;99.90
14093;DHT22;7123;49.468;10.992;2023-12-20T01:07:22;6.20;99.90
14093;DHT22;7123;49.468;10.992;2023-12-20T01:09:49;6.20;99.90
14093;DHT22;7123;49.468;10.992;2023-12-20T01:12:16;6.20;99.90
14093;DHT22;7123;49.468;10.992;2023-12-20T01:14:43;6.20;99.90
14093;DHT22;7123;49.468;10.992;2023-12-20T01:17:09;6.20;99.90
14093;DHT22;7123;49.468;10.992;2023-12-20T01:19:36;6.20;99.90
14093;DHT22;7123;49.468;10.992;2023-12-20T01:22:04;6.20;99.90
14093;DHT22;7123;49.468;10.992;2023-12-20T01:24:31;6.20;99.90
14093;DHT22;7123;49.468;10.992;2023-12-20T01:26:57;6.20;99.90
14093;DHT22;7123;49.468;10.992;2023-12-20T01:29:24;6.10;99.90
14093;DHT22;7123;49.468;10.992;2023-12-20T01:31:51;6.10;99.90
14093;DHT22;7123;49.468;10.992;2023-12-20T01:34:18;6.10;99.90
14093;DHT22;7123;49.468;10.992;2023-12-20T01:36:45;6.10;99.90
14093;DHT22;7123;49.468;10.992;2023-12-20T01:39:12;6.10;99.90
14093;DHT22;7123;49.468;10.992;2023-12-20T01:41:53;6.10;99.90
14093;DHT22;7123;49.468;10.992;2023-12-20T01:44:20;6.10;99.90
14093;DHT22;7123;49.468;10.992;2023-12-20T01:46:47;6.20;99.90
14093;DHT22;7123;49.468;10.992;2023-12-20T01:49:14;6.00;99.90
14093;DHT22;7123;49.468;10.992;2023-12-20T01:51:42;6.00;99.90
14093;DHT22;7123;49.468;10.992;2023-12-20T01:54:10;6.00;99.90
14093;DHT22;7123;49.468;10.992;2023-12-20T01:56:37;6.00;99.90
14093;DHT22;7123;49.468;10.992;2023-12-20T01:59:04;6.10;99.90
14093;DHT22;7123;49.468;10.992;2023-12-20T02:01:31;6.00;99.90
14093;DHT22;7123;49.468;10.992;2023-12-20T02:03:58;5.90;99.90
14093;DHT22;7123;49.468;10.992;2023-12-20T02:06:29;5.90;99.90
14093;DHT22;7123;49.468;10.992;2023-12-20T02:08:58;5.90;99.90
14093;DHT22;7123;49.468;10.992;2023-12-20T02:11:25;5.80;99.90
14093;DHT22;7123;49.468;10.992;2023-12-20T02:13:53;5.80;99.90
14093;DHT22;7123;49.468;10.992;2023-12-20T02:16:20;5.80;99.90
14093;DHT22;7123;49.468;10.992;2023-12-20T02:18:47;5.70;99.90
14093;DHT22;7123;49.468;10.992;2023-12-20T02:21:14;5.70;99.90
14093;DHT22;7123;49.468;10.992;2023-12-20T02:23:41;5.70;99.90
14093;DHT22;7123;49.468;10.992;2023-12-20T02:26:08;5.70;99.90
14093;DHT22;7123;49.468;10.992;2023-12-20T02:28:35;5.60;99.90
14093;DHT22;7123;49.468;10.992;2023-12-20T02:31:02;5.70;99.90
14093;DHT22;7123;49.468;10.992;2023-12-20T02:33:29;5.50;99.90
14093;DHT22;7123;49.468;10.992;2023-12-20T02:35:56;5.50;99.90
14093;DHT22;7123;49.468;10.992;2023-12-20T02:38:23;5.50;99.90
14093;DHT22;7123;49.468;10.992;2023-12-20T02:40:50;5.40;99.90
14093;DHT22;7123;49.468;10.992;2023-12-20T02:43:16;5.40;99.90
14093;DHT22;7123;49.468;10.992;2023-12-20T02:45:43;5.40;99.90
14093;DHT22;7123;49.468;10.992;2023-12-20T02:48:10;5.30;99.90
14093;DHT22;7123;49.468;10.992;2023-12-20T02:50:37;5.30;99.90
14093;DHT22;7123;49.468;10.992;2023-12-20T02:53:04;5.20;99.90
14093;DHT22;7123;49.468;10.992;2023-12-20T02:55:30;5.20;99.90
14093;DHT22;7123;49.468;10.992;2023-12-20T02:57:57;5.20;99.90
14093;DHT22;7123;49.468;10.992;2023-12-20T03:00:24;5.20;99.90
14093;DHT22;7123;49.468;10.992;2023-12-20T03:02:51;5.40;99.90
14093;DHT22;7123;49.468;10.992;2023-12-20T03:05:18;5.10;99.90
14093;DHT22;7123;49.468;10.992;2023-12-20T03:07:45;5.10;99.90
14093;DHT22;7123;49.468;10.992;2023-12-20T03:10:12;5.10;99.90
14093;DHT22;7123;49.468;10.992;2023-12-20T03:12:49;5.10;99.90
14093;DHT22;7123;49.468;10.992;2023-12-20T03:15:16;5.10;99.90
14093;DHT22;7123;49.468;10.992;2023-12-20T03:17:43;5.00;99.90
14093;DHT22;7123;49.468;10.992;2023-12-20T03:20:11;5.00;99.90
14093;DHT22;7123;49.468;10.992;2023-12-20T03:22:38;5.00;99.90
14093;DHT22;7123;49.468;10.992;2023-12-20T03:25:04;5.00;99.90
14093;DHT22;7123;49.468;10.992;2023-12-20T03:27:31;5.00;99.90
14093;DHT22;7123;49.468;10.992;2023-12-20T03:29:58;5.00;99.90
14093;DHT22;7123;49.468;10.992;2023-12-20T03:32:25;4.90;99.90
14093;DHT22;7123;49.468;10.992;2023-12-20T03:34:52;4.90;99.90
14093;DHT22;7123;49.468;10.992;2023-12-20T03:37:19;4.90;99.90
14093;DHT22;7123;49.468;10.992;2023-12-20T03:39:46;4.90;99.90
14093;DHT22;7123;49.468;10.992;2023-12-20T03:42:13;4.90;99.90
14093;DHT22;7123;49.468;10.992;2023-12-20T03:44:39;4.90;99.90
14093;DHT22;7123;49.468;10.992;2023-12-20T03:47:09;4.90;99.90
14093;DHT22;7123;49.468;10.992;2023-12-20T03:49:36;4.90;99.90
14093;DHT22;7123;49.468;10.992;2023-12-20T03:52:05;4.90;99.90
14093;DHT22;7123;49.468;10.992;2023-12-20T03:54:32;4.90;99.90
14093;DHT22;7123;49.468;10.992;2023-12-20T03:56:59;4.90;99.90
14093;DHT22;7123;49.468;10.992;2023-12-20T03:59:26;4.90;99.90
14093;DHT22;7123;49.468;10.992;2023-12-20T04:01:52;4.90;99.90
14093;DHT22;7123;49.468;10.992;2023-12-20T04:04:19;4.80;99.90
14093;DHT22;7123;49.468;10.992;2023-12-20T04:06:46;4.80;99.90
14093;DHT22;7123;49.468;10.992;2023-12-20T04:09:13;4.90;99.90
14093;DHT22;7123;49.468;10.992;2023-12-20T04:11:40;4.90;99.90
14093;DHT22;7123;49.468;10.992;2023-12-20T04:14:06;4.90;99.90
14093;DHT22;7123;49.468;10.992;2023-12-20T04:16:34;4.90;99.90
14093;DHT22;7123;49.468;10.992;2023-12-20T04:19:01;4.90;99.90
14093;DHT22;7123;49.468;10.992;2023-12-20T04:21:28;4.80;99.90
14093;DHT22;7123;49.468;10.992;2023-12-20T04:23:54;4.90;99.90
14093;DHT22;7123;49.468;10.992;2023-12-20T04:26:21;4.90;99.90
14093;DHT22;7123;49.468;10.992;2023-12-20T04:28:48;4.90;99.90
14093;DHT22;7123;49.468;10.992;2023-12-20T04:31:16;4.90;99.90
14093;DHT22;7123;49.468;10.992;2023-12-20T04:33:43;4.90;99.90
14093;DHT22;7123;49.468;10.992;2023-12-20T04:36:10;4.80;99.90
14093;DHT22;7123;49.468;10.992;2023-12-20T04:38:37;5.00;99.90
14093;DHT22;7123;49.468;10.992;2023-12-20T04:41:04;4.90;99.90
14093;DHT22;7123;49.468;10.992;2023-12-20T04:43:30;4.80;99.90
14093;DHT22;7123;49.468;10.992;2023-12-20T04:45:57;4.80;99.90
14093;DHT22;7123;49.468;10.992;2023-12-20T04:48:24;4.80;99.90
14093;DHT22;7123;49.468;10.992;2023-12-20T04:50:50;4.80;99.90
14093;DHT22;7123;49.468;10.992;2023-12-20T04:53:17;4.80;99.90
14093;DHT22;7123;49.468;10.992;2023-12-20T04:55:45;4.80;99.90
14093;DHT22;7123;49.468;10.992;2023-12-20T04:58:11;4.80;99.90
14093;DHT22;7123;49.468;10.992;2023-12-20T05:00:38;4.80;99.90
14093;DHT22;7123;49.468;10.992;2023-12-20T05:03:05;5.00;99.90
14093;DHT22;7123;49.468;10.992;2023-12-20T05:05:32;4.90;99.90
14093;DHT22;7123;49.468;10.992;2023-12-20T05:07:58;4.80;99.90
14093;DHT22;7123;49.468;10.992;2023-12-20T05:10:25;4.80;99.90
14093;DHT22;7123;49.468;10.992;2023-12-20T05:12:53;4.80;99.90
14093;DHT22;7123;49.468;10.992;2023-12-20T05:15:20;4.80;99.90
14093;DHT22;7123;49.468;10.992;2023-12-20T05:17:47;4.80;99.90
14093;DHT22;7123;49.468;10.992;2023-12-20T05:20:14;4.80;99.90
14093;DHT22;7123;49.468;10.992;2023-12-20T05:22:41;4.80;99.90
14093;DHT22;7123;49.468;10.992;2023-12-20T05:25:08;4.80;99.90
14093;DHT22;7123;49.468;10.992;2023-12-20T05:27:35;4.80;99.90
14093;DHT22;7123;49.468;10.992;2023-12-20T05:30:02;4.80;99.90
14093;DHT22;7123;49.468;10.992;2023-12-20T05:32:28;4.80;99.90
14093;DHT22;7123;49.468;10.992;2023-12-20T05:34:55;4.80;99.90
14093;DHT22;7123;49.468;10.992;2023-12-20T05:37:22;4.70;99.90
14093;DHT22;7123;49.468;10.992;2023-12-20T05:39:49;4.70;99.90
14093;DHT22;7123;49.468;10.992;2023-12-20T05:42:16;4.70;99.90
14093;DHT22;7123;49.468;10.992;2023-12-20T05:44:42;4.70;99.90
14093;DHT22;7123;49.468;10.992;2023-12-20T05:47:09;4.70;99.90
14093;DHT22;7123;49.468;10.992;2023-12-20T05:49:36;4.70;99.90
14093;DHT22;7123;49.468;10.992;2023-12-20T05:52:03;4.70;99.90
14093;DHT22;7123;49.468;10.992;2023-12-20T05:54:30;4.70;99.90
14093;DHT22;7123;49.468;10.992;2023-12-20T05:56:57;4.70;99.90
14093;DHT22;7123;49.468;10.992;2023-12-20T05:59:23;4.70;99.90
14093;DHT22;7123;49.468;10.992;2023-12-20T06:01:50;4.80;99.90
14093;DHT22;7123;49.468;10.992;2023-12-20T06:04:17;4.70;99.90
14093;DHT22;7123;49.468;10.992;2023-12-20T06:06:44;4.70;99.90
14093;DHT22;7123;49.468;10.992;2023-12-20T06:09:11;4.70;99.90
14093;DHT22;7123;49.468;10.992;2023-12-20T06:11:38;4.70;99.90
14093;DHT22;7123;49.468;10.992;2023-12-20T06:14:04;4.70;99.90
14093;DHT22;7123;49.468;10.992;2023-12-20T06:16:31;4.70;99.90
14093;DHT22;7123;49.468;10.992;2023-12-20T06:18:58;4.70;99.90
14093;DHT22;7123;49.468;10.992;2023-12-20T06:21:25;4.70;99.90
14093;DHT22;7123;49.468;10.992;2023-12-20T06:23:51;4.70;99.90
14093;DHT22;7123;49.468;10.992;2023-12-20T06:26:18;4.70;99.90
14093;DHT22;7123;49.468;10.992;2023-12-20T06:28:45;4.70;99.90
14093;DHT22;7123;49.468;10.992;2023-12-20T06:31:12;4.70;99.90
14093;DHT22;7123;49.468;10.992;2023-12-20T06:33:39;4.70;99.90
14093;DHT22;7123;49.468;10.992;2023-12-20T06:36:10;4.70;99.90
14093;DHT22;7123;49.468;10.992;2023-12-20T06:38:37;4.80;99.90
14093;DHT22;7123;49.468;10.992;2023-12-20T06:41:03;4.80;99.90
14093;DHT22;7123;49.468;10.992;2023-12-20T06:43:30;4.80;99.90
14093;DHT22;7123;49.468;10.992;2023-12-20T06:46:14;4.80;99.90
14093;DHT22;7123;49.468;10.992;2023-12-20T06:48:41;4.80;99.90
14093;DHT22;7123;49.468;10.992;2023-12-20T06:51:14;4.80;99.90
14093;DHT22;7123;49.468;10.992;2023-12-20T06:53:41;4.80;99.90
14093;DHT22;7123;49.468;10.992;2023-12-20T06:56:10;4.70;99.90
14093;DHT22;7123;49.468;10.992;2023-12-20T06:58:41;4.80;99.90
14093;DHT22;7123;49.468;10.992;2023-12-20T07:01:14;4.80;99.90
14093;DHT22;7123;49.468;10.992;2023-12-20T07:03:42;4.80;99.90
14093;DHT22;7123;49.468;10.992;2023-12-20T07:06:09;4.80;99.90
14093;DHT22;7123;49.468;10.992;2023-12-20T07:08:36;4.80;99.90
14093;DHT22;7123;49.468;10.992;2023-12-20T07:11:03;4.90;99.90
14093;DHT22;7123;49.468;10.992;2023-12-20T07:13:30;4.90;99.90
14093;DHT22;7123;49.468;10.992;2023-12-20T07:15:57;4.90;99.90
14093;DHT22;7123;49.468;10.992;2023-12-20T07:18:23;5.00;99.90
14093;DHT22;7123;49.468;10.992;2023-12-20T07:20:50;5.00;99.90
14093;DHT22;7123;49.468;10.992;2023-12-20T07:23:17;5.10;99.90
14093;DHT22;7123;49.468;10.992;2023-12-20T07:25:46;5.20;99.90
14093;DHT22;7123;49.468;10.992;2023-12-20T07:28:12;5.20;99.90
14093;DHT22;7123;49.468;10.992;2023-12-20T07:30:39;5.20;99.90
14093;DHT22;7123;49.468;10.992;2023-12-20T07:33:06;5.20;99.90
14093;DHT22;7123;49.468;10.992;2023-12-20T07:35:35;5.10;99.90
14093;DHT22;7123;49.468;10.992;2023-12-20T07:38:02;5.10;99.90
14093;DHT22;7123;49.468;10.992;2023-12-20T07:40:29;5.10;99.90
14093;DHT22;7123;49.468;10.992;2023-12-20T07:42:56;5.10;99.90
14093;DHT22;7123;49.468;10.992;2023-12-20T07:45:23;5.10;99.90
14093;DHT22;7123;49.468;10.992;2023-12-20T07:47:49;5.10;99.90
14093;DHT22;7123;49.468;10.992;2023-12-20T07:50:17;5.10;99.90
14093;DHT22;7123;49.468;10.992;2023-12-20T07:52:43;5.20;99.90
14093;DHT22;7123;49.468;10.992;2023-12-20T07:55:10;5.20;99.90
14093;DHT22;7123;49.468;10.992;2023-12-20T07:57:37;5.20;99.90
14093;DHT22;7123;49.468;10.992;2023-12-20T08:00:04;5.20;99.90
14093;DHT22;7123;49.468;10.992;2023-12-20T08:02:32;5.20;99.90
14093;DHT22;7123;49.468;10.992;2023-12-20T08:04:58;5.20;99.90
14093;DHT22;7123;49.468;10.992;2023-12-20T08:07:25;5.20;99.90
14093;DHT22;7123;49.468;10.992;2023-12-20T08:09:52;5.30;99.90
14093;DHT22;7123;49.468;10.992;2023-12-20T08:12:19;5.30;99.90
14093;DHT22;7123;49.468;10.992;2023-12-20T08:14:46;5.30;99.90
14093;DHT22;7123;49.468;10.992;2023-12-20T08:17:13;5.30;99.90
14093;DHT22;7123;49.468;10.992;2023-12-20T08:19:42;5.30;99.90
14093;DHT22;7123;49.468;10.992;2023-12-20T08:22:09;5.30;99.90
14093;DHT22;7123;49.468;10.992;2023-12-20T08:24:36;5.30;99.90
14093;DHT22;7123;49.468;10.992;2023-12-20T08:27:03;5.30;99.90
14093;DHT22;7123;49.468;10.992;2023-12-20T08:29:30;5.40;99.90
14093;DHT22;7123;49.468;10.992;2023-12-20T08:31:57;5.40;99.90
14093;DHT22;7123;49.468;10.992;2023-12-20T08:34:24;5.40;99.90
14093;DHT22;7123;49.468;10.992;2023-12-20T08:36:51;5.50;99.90
14093;DHT22;7123;49.468;10.992;2023-12-20T08:39:18;5.50;99.90
14093;DHT22;7123;49.468;10.992;2023-12-20T08:41:45;5.50;99.90
14093;DHT22;7123;49.468;10.992;2023-12-20T08:44:11;5.50;99.90
14093;DHT22;7123;49.468;10.992;2023-12-20T08:46:38;5.50;99.90
14093;DHT22;7123;49.468;10.992;2023-12-20T08:49:05;5.50;99.90
14093;DHT22;7123;49.468;10.992;2023-12-20T08:51:32;5.50;99.90
14093;DHT22;7123;49.468;10.992;2023-12-20T08:54:00;5.50;99.90
14093;DHT22;7123;49.468;10.992;2023-12-20T08:56:27;5.50;99.90
14093;DHT22;7123;49.468;10.992;2023-12-20T08:58:54;5.50;99.90
14093;DHT22;7123;49.468;10.992;2023-12-20T09:01:21;5.50;99.90
14093;DHT22;7123;49.468;10.992;2023-12-20T09:03:47;5.40;99.90
14093;DHT22;7123;49.468;10.992;2023-12-20T09:06:14;5.50;99.90
14093;DHT22;7123;49.468;10.992;2023-12-20T09:08:42;5.40;99.90
14093;DHT22;7123;49.468;10.992;2023-12-20T09:11:08;5.40;99.90
14093;DHT22;7123;49.468;10.992;2023-12-20T09:13:35;5.40;99.90
14093;DHT22;7123;49.468;10.992;2023-12-20T09:16:03;5.30;99.90
14093;DHT22;7123;49.468;10.992;2023-12-20T09:18:30;5.30;99.90
14093;DHT22;7123;49.468;10.992;2023-12-20T09:20:57;5.30;99.90
14093;DHT22;7123;49.468;10.992;2023-12-20T09:23:23;5.30;99.90
14093;DHT22;7123;49.468;10.992;2023-12-20T09:25:50;5.30;99.90
14093;DHT22;7123;49.468;10.992;2023-12-20T09:28:20;5.30;99.90
14093;DHT22;7123;49.468;10.992;2023-12-20T09:30:47;5.30;99.90
14093;DHT22;7123;49.468;10.992;2023-12-20T09:33:14;5.40;99.90
14093;DHT22;7123;49.468;10.992;2023-12-20T09:35:42;5.40;99.90
14093;DHT22;7123;49.468;10.992;2023-12-20T09:38:10;5.40;99.90
14093;DHT22;7123;49.468;10.992;2023-12-20T09:40:41;5.50;99.90
14093;DHT22;7123;49.468;10.992;2023-12-20T09:43:14;5.50;99.90
14093;DHT22;7123;49.468;10.992;2023-12-20T09:45:42;5.60;99.90
14093;DHT22;7123;49.468;10.992;2023-12-20T09:48:12;5.60;99.90
14093;DHT22;7123;49.468;10.992;2023-12-20T09:50:41;5.70;99.90
14093;DHT22;7123;49.468;10.992;2023-12-20T09:53:14;5.70;99.90
14093;DHT22;7123;49.468;10.992;2023-12-20T09:55:41;5.70;99.90
14093;DHT22;7123;49.468;10.992;2023-12-20T09:58:08;5.80;99.90
14093;DHT22;7123;49.468;10.992;2023-12-20T10:00:35;5.80;99.90
14093;DHT22;7123;49.468;10.992;2023-12-20T10:03:03;5.80;99.90
14093;DHT22;7123;49.468;10.992;2023-12-20T10:05:33;5.90;99.90
14093;DHT22;7123;49.468;10.992;2023-12-20T10:08:01;5.90;99.90
14093;DHT22;7123;49.468;10.992;2023-12-20T10:10:29;6.00;99.90
14093;DHT22;7123;49.468;10.992;2023-12-20T10:13:11;6.00;99.90
14093;DHT22;7123;49.468;10.992;2023-12-20T10:15:39;6.10;99.90
14093;DHT22;7123;49.468;10.992;2023-12-20T10:18:07;6.10;99.90
14093;DHT22;7123;49.468;10.992;2023-12-20T10:20:35;6.10;99.90
14093;DHT22;7123;49.468;10.992;2023-12-20T10:23:02;6.10;99.90
14093;DHT22;7123;49.468;10.992;2023-12-20T10:25:29;6.00;99.90
14093;DHT22;7123;49.468;10.992;2023-12-20T10:30:37;6.00;99.90
14093;DHT22;7123;49.468;10.992;2023-12-20T10:33:06;6.00;99.90
14093;DHT22;7123;49.468;10.992;2023-12-20T10:35:34;6.00;99.90
14093;DHT22;7123;49.468;10.992;2023-12-20T10:38:05;6.00;99.90
14093;DHT22;7123;49.468;10.992;2023-12-20T10:40:36;6.00;99.90
14093;DHT22;7123;49.468;10.992;2023-12-20T10:43:04;6.00;99.90
14093;DHT22;7123;49.468;10.992;2023-12-20T10:45:32;6.00;99.90
14093;DHT22;7123;49.468;10.992;2023-12-20T10:47:59;6.00;99.90
14093;DHT22;7123;49.468;10.992;2023-12-20T10:50:27;5.90;99.90
14093;DHT22;7123;49.468;10.992;2023-12-20T10:52:54;5.90;99.90
14093;DHT22;7123;49.468;10.992;2023-12-20T10:55:23;6.00;99.90
14093;DHT22;7123;49.468;10.992;2023-12-20T10:58:08;5.90;99.90
14093;DHT22;7123;49.468;10.992;2023-12-20T11:00:39;6.00;99.90
14093;DHT22;7123;49.468;10.992;2023-12-20T11:03:09;6.00;99.90
14093;DHT22;7123;49.468;10.992;2023-12-20T11:08:36;6.00;99.90
14093;DHT22;7123;49.468;10.992;2023-12-20T11:14:06;6.00;99.90
14093;DHT22;7123;49.468;10.992;2023-12-20T11:16:37;6.00;99.90
14093;DHT22;7123;49.468;10.992;2023-12-20T11:19:17;5.90;99.90
14093;DHT22;7123;49.468;10.992;2023-12-20T11:21:46;5.80;99.90
14093;DHT22;7123;49.468;10.992;2023-12-20T11:24:13;5.80;99.90
14093;DHT22;7123;49.468;10.992;2023-12-20T11:26:47;5.80;99.90
14093;DHT22;7123;49.468;10.992;2023-12-20T11:29:31;5.70;99.90
14093;DHT22;7123;49.468;10.992;2023-12-20T11:32:00;5.70;99.90
14093;DHT22;7123;49.468;10.992;2023-12-20T11:34:31;5.70;99.90
14093;DHT22;7123;49.468;10.992;2023-12-20T11:36:59;5.70;99.90
14093;DHT22;7123;49.468;10.992;2023-12-20T11:39:27;5.70;99.90
14093;DHT22;7123;49.468;10.992;2023-12-20T11:41:56;5.70;99.90
14093;DHT22;7123;49.468;10.992;2023-12-20T11:44:25;5.70;99.90
14093;DHT22;7123;49.468;10.992;2023-12-20T11:46:52;5.80;99.90
14093;DHT22;7123;49.468;10.992;2023-12-20T11:49:23;5.80;99.90
14093;DHT22;7123;49.468;10.992;2023-12-20T11:51:50;5.80;99.90
14093;DHT22;7123;49.468;10.992;2023-12-20T11:54:18;5.80;99.90
14093;DHT22;7123;49.468;10.992;2023-12-20T11:56:45;5.70;99.90
14093;DHT22;7123;49.468;10.992;2023-12-20T11:59:12;5.70;99.90
14093;DHT22;7123;49.468;10.992;2023-12-20T12:01:50;5.70;99.90
14093;DHT22;7123;49.468;10.992;2023-12-20T12:04:17;5.70;99.90
14093;DHT22;7123;49.468;10.992;2023-12-20T12:06:45;5.70;99.90
14093;DHT22;7123;49.468;10.992;2023-12-20T12:09:12;5.70;99.90
14093;DHT22;7123;49.468;10.992;2023-12-20T12:11:39;5.70;99.90
14093;DHT22;7123;49.468;10.992;2023-12-20T12:14:07;5.80;99.90
14093;DHT22;7123;49.468;10.992;2023-12-20T12:16:34;5.80;99.90
14093;DHT22;7123;49.468;10.992;2023-12-20T12:19:01;5.90;99.90
14093;DHT22;7123;49.468;10.992;2023-12-20T12:21:28;5.90;99.90
14093;DHT22;7123;49.468;10.992;2023-12-20T12:24:09;5.90;99.90
14093;DHT22;7123;49.468;10.992;2023-12-20T12:26:36;6.00;99.90
14093;DHT22;7123;49.468;10.992;2023-12-20T12:29:07;6.00;99.90
14093;DHT22;7123;49.468;10.992;2023-12-20T12:31:34;6.00;99.90
14093;DHT22;7123;49.468;10.992;2023-12-20T12:34:01;6.10;99.90
14093;DHT22;7123;49.468;10.992;2023-12-20T12:36:29;6.00;99.90
14093;DHT22;7123;49.468;10.992;2023-12-20T12:39:02;6.00;99.90
14093;DHT22;7123;49.468;10.992;2023-12-20T12:41:30;6.20;99.90
14093;DHT22;7123;49.468;10.992;2023-12-20T12:43:56;6.00;99.90
14093;DHT22;7123;49.468;10.992;2023-12-20T12:46:30;6.00;99.90
14093;DHT22;7123;49.468;10.992;2023-12-20T12:48:57;6.10;99.90
14093;DHT22;7123;49.468;10.992;2023-12-20T12:51:24;6.10;99.90
14093;DHT22;7123;49.468;10.992;2023-12-20T12:53:51;6.20;99.90
14093;DHT22;7123;49.468;10.992;2023-12-20T12:56:18;6.20;99.90
14093;DHT22;7123;49.468;10.992;2023-12-20T12:58:45;6.20;99.90
14093;DHT22;7123;49.468;10.992;2023-12-20T13:01:12;6.20;99.90
14093;DHT22;7123;49.468;10.992;2023-12-20T13:03:38;6.20;99.90
14093;DHT22;7123;49.468;10.992;2023-12-20T13:06:05;6.10;99.90
14093;DHT22;7123;49.468;10.992;2023-12-20T13:08:35;6.10;99.90
14093;DHT22;7123;49.468;10.992;2023-12-20T13:11:02;6.10;99.90
14093;DHT22;7123;49.468;10.992;2023-12-20T13:13:31;6.10;99.90
14093;DHT22;7123;49.468;10.992;2023-12-20T13:15:58;6.10;99.90
14093;DHT22;7123;49.468;10.992;2023-12-20T13:18:24;6.00;99.90
14093;DHT22;7123;49.468;10.992;2023-12-20T13:20:51;6.00;99.90
14093;DHT22;7123;49.468;10.992;2023-12-20T13:23:18;6.00;99.90
14093;DHT22;7123;49.468;10.992;2023-12-20T13:25:45;6.00;99.90
14093;DHT22;7123;49.468;10.992;2023-12-20T13:28:14;6.00;99.90
14093;DHT22;7123;49.468;10.992;2023-12-20T13:30:41;6.00;99.90
14093;DHT22;7123;49.468;10.992;2023-12-20T13:33:08;6.00;99.90
14093;DHT22;7123;49.468;10.992;2023-12-20T13:35:35;6.10;99.90
14093;DHT22;7123;49.468;10.992;2023-12-20T13:38:02;6.00;99.90
14093;DHT22;7123;49.468;10.992;2023-12-20T13:40:29;6.00;99.90
14093;DHT22;7123;49.468;10.992;2023-12-20T13:42:56;6.00;99.90
14093;DHT22;7123;49.468;10.992;2023-12-20T13:45:23;6.00;99.90
14093;DHT22;7123;49.468;10.992;2023-12-20T13:47:51;5.90;99.90
14093;DHT22;7123;49.468;10.992;2023-12-20T13:50:18;5.90;99.90
14093;DHT22;7123;49.468;10.992;2023-12-20T13:52:45;5.90;99.90
14093;DHT22;7123;49.468;10.992;2023-12-20T13:55:13;5.90;99.90
14093;DHT22;7123;49.468;10.992;2023-12-20T13:57:39;5.80;99.90
14093;DHT22;7123;49.468;10.992;2023-12-20T14:00:21;5.80;99.90
14093;DHT22;7123;49.468;10.992;2023-12-20T14:02:48;5.80;99.90
14093;DHT22;7123;49.468;10.992;2023-12-20T14:05:16;5.80;99.90
14093;DHT22;7123;49.468;10.992;2023-12-20T14:07:45;5.80;99.90
14093;DHT22;7123;49.468;10.992;2023-12-20T14:10:13;5.80;99.90
14093;DHT22;7123;49.468;10.992;2023-12-20T14:12:40;5.80;99.90
14093;DHT22;7123;49.468;10.992;2023-12-20T14:15:07;5.80;99.90
14093;DHT22;7123;49.468;10.992;2023-12-20T14:17:38;5.80;99.90
14093;DHT22;7123;49.468;10.992;2023-12-20T14:20:06;5.80;99.90
14093;DHT22;7123;49.468;10.992;2023-12-20T14:22:36;5.80;99.90
14093;DHT22;7123;49.468;10.992;2023-12-20T14:25:05;5.80;99.90
14093;DHT22;7123;49.468;10.992;2023-12-20T14:27:33;5.80;99.90
14093;DHT22;7123;49.468;10.992;2023-12-20T14:30:00;5.70;99.90
14093;DHT22;7123;49.468;10.992;2023-12-20T14:32:27;5.70;99.90
14093;DHT22;7123;49.468;10.992;2023-12-20T14:34:54;5.70;99.90
14093;DHT22;7123;49.468;10.992;2023-12-20T14:37:21;5.80;99.90
14093;DHT22;7123;49.468;10.992;2023-12-20T14:39:48;5.50;99.90
14093;DHT22;7123;49.468;10.992;2023-12-20T14:42:15;5.50;99.90
14093;DHT22;7123;49.468;10.992;2023-12-20T14:44:43;5.50;99.90
14093;DHT22;7123;49.468;10.992;2023-12-20T14:47:09;5.40;99.90
14093;DHT22;7123;49.468;10.992;2023-12-20T14:49:36;5.40;99.90
14093;DHT22;7123;49.468;10.992;2023-12-20T14:52:04;5.50;99.90
14093;DHT22;7123;49.468;10.992;2023-12-20T14:54:31;5.40;99.90
14093;DHT22;7123;49.468;10.992;2023-12-20T14:56:59;5.40;99.90
14093;DHT22;7123;49.468;10.992;2023-12-20T14:59:31;5.40;99.90
14093;DHT22;7123;49.468;10.992;2023-12-20T15:01:58;5.40;99.90
14093;DHT22;7123;49.468;10.992;2023-12-20T15:04:25;5.40;99.90
14093;DHT22;7123;49.468;10.992;2023-12-20T15:06:55;5.40;99.90
14093;DHT22;7123;49.468;10.992;2023-12-20T15:09:22;5.40;99.90
14093;DHT22;7123;49.468;10.992;2023-12-20T15:11:49;5.40;99.90
14093;DHT22;7123;49.468;10.992;2023-12-20T15:14:16;5.30;99.90
14093;DHT22;7123;49.468;10.992;2023-12-20T15:16:46;5.40;99.90
14093;DHT22;7123;49.468;10.992;2023-12-20T15:19:14;5.30;99.90
14093;DHT22;7123;49.468;10.992;2023-12-20T15:21:41;5.30;99.90
14093;DHT22;7123;49.468;10.992;2023-12-20T15:24:13;5.30;99.90
14093;DHT22;7123;49.468;10.992;2023-12-20T15:26:46;5.30;99.90
14093;DHT22;7123;49.468;10.992;2023-12-20T15:29:13;5.30;99.90
14093;DHT22;7123;49.468;10.992;2023-12-20T15:31:45;5.30;99.90
14093;DHT22;7123;49.468;10.992;2023-12-20T15:34:12;5.30;99.90
14093;DHT22;7123;49.468;10.992;2023-12-20T15:36:40;5.30;99.90
14093;DHT22;7123;49.468;10.992;2023-12-20T15:39:08;5.30;99.90
14093;DHT22;7123;49.468;10.992;2023-12-20T15:41:35;5.30;99.90
14093;DHT22;7123;49.468;10.992;2023-12-20T15:44:02;5.40;99.90
14093;DHT22;7123;49.468;10.992;2023-12-20T15:46:29;5.40;99.90
14093;DHT22;7123;49.468;10.992;2023-12-20T15:48:55;5.40;99.90
14093;DHT22;7123;49.468;10.992;2023-12-20T15:51:23;5.40;99.90
14093;DHT22;7123;49.468;10.992;2023-12-20T15:53:50;5.40;99.90
14093;DHT22;7123;49.468;10.992;2023-12-20T15:56:17;5.40;99.90